Time;durP1;ratioP1;P1;durP2;ratioP2;P2;SDS_P1;SDS_P2;PMS_P1;PMS_P2;Temp;Humidity;BMP_temperature;BMP_pressure;BME280_temperature;BME280_humidity;BME280_pressure;Samples;Min_cycle;Max_cycle;Signal;HPM_P1;HPM_P2
2022/09/23 00:00:24;;;;;;;32.20;16.90;;;;;;;;;;5045429;28;20025;-74
2022/09/23 00:02:50;;;;;;;30.20;15.67;;;;;;;;;;5037230;28;20126;-76
2022/09/23 00:05:16;;;;;;;33.37;17.30;;;;;;;;;;5040337;28;20030;-73
2022/09/23 00:07:42;;;;;;;28.87;16.10;;;;;;;;;;5049864;28;20047;-74
2022/09/23 00:10:08;;;;;;;33.73;17.87;;;;;;;;;;5039654;28;20818;-76
2022/09/23 00:12:33;;;;;;;28.67;17.90;;;;;;;;;;5041613;28;20025;-74
2022/09/23 00:14:59;;;;;;;29.47;15.27;;;;;;;;;;5037181;28;20029;-76
2022/09/23 00:17:25;;;;;;;32.77;16.87;;;;;;;;;;5042210;28;20029;-75
2022/09/23 00:19:53;;;;;;;31.77;14.97;;;;;;;;;;5037680;28;20408;-75
2022/09/23 00:22:19;;;;;;;34.07;17.67;;;;;;;;;;5043844;28;20441;-75
2022/09/23 00:24:44;;;;;;;29.10;16.50;;;;;;;;;;5042259;28;20036;-74
2022/09/23 00:27:10;;;;;;;31.13;17.37;;;;;;;;;;5038660;28;20469;-75
2022/09/23 00:29:35;;;;;;;32.37;16.80;;;;;;;;;;5041926;28;20032;-74
2022/09/23 00:32:02;;;;;;;35.00;16.37;;;;;;;;;;5027421;28;20776;-75
2022/09/23 00:34:28;;;;;;;33.50;17.43;;;;;;;;;;5038367;28;20028;-76
2022/09/23 00:36:55;;;;;;;34.90;16.77;;;;;;;;;;5050235;28;20029;-76
2022/09/23 00:39:21;;;;;;;35.70;16.97;;;;;;;;;;5037228;28;20697;-76
2022/09/23 00:41:47;;;;;;;33.00;18.37;;;;;;;;;;5036763;28;20127;-75
2022/09/23 00:44:44;;;;;;;38.90;19.20;;;;;;;;;;5042359;28;20194;-75
2022/09/23 00:47:34;;;;;;;36.43;18.83;;;;;;;;;;5022943;28;20082;-75
2022/09/23 00:50:07;;;;;;;38.97;18.73;;;;;;;;;;5034425;28;20037;-74
2022/09/23 00:52:33;;;;;;;36.50;18.33;;;;;;;;;;5039842;28;20107;-74
2022/09/23 00:55:01;;;;;;;37.17;17.50;;;;;;;;;;5038238;28;20112;-78
2022/09/23 00:57:27;;;;;;;35.93;17.93;;;;;;;;;;5041462;28;20108;-78
2022/09/23 00:59:53;;;;;;;35.33;18.57;;;;;;;;;;5022393;28;20112;-78
2022/09/23 01:02:19;;;;;;;37.07;17.30;;;;;;;;;;5040204;28;20051;-78
2022/09/23 01:04:48;;;;;;;34.03;17.37;;;;;;;;;;5038769;28;20033;-79
2022/09/23 01:07:14;;;;;;;31.63;16.67;;;;;;;;;;5042279;28;20029;-78
2022/09/23 01:09:39;;;;;;;34.27;18.63;;;;;;;;;;5041898;28;20842;-78
2022/09/23 01:12:11;;;;;;;35.47;18.07;;;;;;;;;;5037386;28;20021;-78
2022/09/23 01:14:51;;;;;;;33.45;16.10;;;;;;;;;;5036117;28;20060;-79
2022/09/23 01:17:38;;;;;;;35.10;19.37;;;;;;;;;;5037935;28;20037;-78
2022/09/23 01:20:42;;;;;;;33.60;18.10;;;;;;;;;;5035709;28;20033;-80
2022/09/23 01:23:46;;;;;;;32.30;17.10;;;;;;;;;;5035667;28;20029;-80
2022/09/23 01:26:14;;;;;;;39.03;16.93;;;;;;;;;;5036486;28;20041;-79
2022/09/23 01:28:48;;;;;;;31.00;17.57;;;;;;;;;;5040756;28;20718;-79
2022/09/23 01:31:23;;;;;;;31.83;16.37;;;;;;;;;;5036354;28;20029;-79
2022/09/23 01:34:26;;;;;;;30.73;16.47;;;;;;;;;;5028987;28;20091;-79
2022/09/23 01:37:09;;;;;;;38.63;17.20;;;;;;;;;;5043294;28;20028;-79
2022/09/23 01:39:47;;;;;;;32.63;17.43;;;;;;;;;;5035707;28;20029;-78
2022/09/23 01:42:40;;;;;;;36.63;17.83;;;;;;;;;;5040574;28;20706;-77
2022/09/23 01:45:06;;;;;;;30.87;17.20;;;;;;;;;;5042278;28;20827;-80
2022/09/23 01:47:41;;;;;;;34.40;17.10;;;;;;;;;;5035848;28;20037;-77
2022/09/23 01:53:10;;;;;;;32.93;17.83;;;;;;;;;;5038422;28;20128;-78
2022/09/23 01:55:41;;;;;;;32.33;16.50;;;;;;;;;;5040246;28;20730;-79
2022/09/23 01:58:17;;;;;;;29.13;16.53;;;;;;;;;;5036277;28;20033;-79
2022/09/23 02:00:51;;;;;;;34.53;16.97;;;;;;;;;;5042426;28;20025;-79
2022/09/23 02:03:25;;;;;;;35.37;17.90;;;;;;;;;;5040147;28;20124;-78
2022/09/23 02:06:00;;;;;;;31.53;18.20;;;;;;;;;;5037640;28;20530;-79
2022/09/23 02:08:32;;;;;;;31.53;16.83;;;;;;;;;;5039081;28;20210;-81
2022/09/23 02:11:05;;;;;;;33.13;17.37;;;;;;;;;;5039043;28;20692;-78
2022/09/23 02:13:39;;;;;;;34.87;17.50;;;;;;;;;;5035264;28;20055;-77
2022/09/23 02:16:34;;;;;;;34.90;17.40;;;;;;;;;;5035429;28;20470;-79
2022/09/23 02:19:08;;;;;;;33.97;16.07;;;;;;;;;;5041113;28;20469;-79
2022/09/23 02:21:39;;;;;;;32.77;18.23;;;;;;;;;;5042958;28;20111;-77
2022/09/23 02:24:12;;;;;;;35.13;16.87;;;;;;;;;;5039279;28;20108;-78
2022/09/23 02:26:48;;;;;;;34.83;17.00;;;;;;;;;;5050324;28;20034;-76
2022/09/23 02:29:28;;;;;;;33.40;17.43;;;;;;;;;;5051721;28;20089;-78
2022/09/23 02:32:29;;;;;;;33.70;18.10;;;;;;;;;;5051347;28;20053;-78
2022/09/23 02:35:33;;;;;;;42.00;17.30;;;;;;;;;;5043911;28;20040;-78
2022/09/23 02:38:26;;;;;;;38.63;16.70;;;;;;;;;;4994786;28;20143;-78
2022/09/23 02:41:03;;;;;;;38.13;17.40;;;;;;;;;;4994450;28;20038;-78
2022/09/23 02:43:41;;;;;;;42.33;18.60;;;;;;;;;;4997815;28;20040;-79
2022/09/23 02:46:07;;;;;;;40.70;18.00;;;;;;;;;;5017555;28;20103;-79
2022/09/23 02:48:40;;;;;;;35.90;17.83;;;;;;;;;;5046335;28;20116;-79
2022/09/23 02:51:07;;;;;;;36.50;17.33;;;;;;;;;;5034173;28;20542;-80
2022/09/23 02:53:33;;;;;;;37.70;17.67;;;;;;;;;;5040146;28;20135;-79
2022/09/23 02:56:18;;;;;;;36.73;17.67;;;;;;;;;;5034064;28;20496;-80
2022/09/23 02:58:45;;;;;;;37.17;18.43;;;;;;;;;;5037703;28;20033;-80
2022/09/23 03:01:33;;;;;;;35.83;18.47;;;;;;;;;;5041578;28;20029;-79
2022/09/23 03:04:30;;;;;;;33.73;16.23;;;;;;;;;;5041401;28;20161;-78
2022/09/23 03:07:06;;;;;;;30.83;15.57;;;;;;;;;;5041053;28;20149;-79
2022/09/23 03:09:41;;;;;;;34.67;17.60;;;;;;;;;;5038896;28;20132;-80
2022/09/23 03:12:40;;;;;;;37.17;17.30;;;;;;;;;;5026669;28;20045;-76
2022/09/23 03:15:20;;;;;;;32.97;14.83;;;;;;;;;;5037657;28;20045;-78
2022/09/23 03:18:00;;;;;;;33.27;16.73;;;;;;;;;;5042296;28;20186;-79
2022/09/23 03:20:45;;;;;;;29.33;14.93;;;;;;;;;;5037762;28;20025;-79
2022/09/23 03:23:14;;;;;;;30.27;14.87;;;;;;;;;;5044207;28;20030;-79
2022/09/23 03:25:43;;;;;;;25.57;14.90;;;;;;;;;;5041114;28;20485;-78
2022/09/23 03:28:10;;;;;;;29.63;15.03;;;;;;;;;;5041858;28;20025;-78
2022/09/23 03:30:36;;;;;;;30.07;15.57;;;;;;;;;;5042331;28;20037;-79
2022/09/23 03:33:10;;;;;;;29.87;15.23;;;;;;;;;;5040129;28;20098;-79
2022/09/23 03:38:39;;;;;;;28.30;14.23;;;;;;;;;;5045467;28;20075;-77
2022/09/23 03:41:09;;;;;;;24.57;14.07;;;;;;;;;;5041847;28;20401;-80
2022/09/23 03:43:37;;;;;;;24.95;14.05;;;;;;;;;;5039914;28;20052;-79
2022/09/23 03:46:03;;;;;;;28.43;13.97;;;;;;;;;;5041773;28;20043;-79
2022/09/23 03:48:28;;;;;;;24.43;13.37;;;;;;;;;;5041409;28;20033;-79
2022/09/23 03:50:54;;;;;;;23.90;14.33;;;;;;;;;;5024358;28;20029;-77
2022/09/23 03:53:20;;;;;;;23.17;13.97;;;;;;;;;;5037368;28;20438;-77
2022/09/23 03:55:46;;;;;;;25.97;13.60;;;;;;;;;;5039785;28;20451;-77
2022/09/23 03:58:13;;;;;;;25.77;13.63;;;;;;;;;;5044061;28;20124;-78
2022/09/23 04:00:38;;;;;;;27.00;13.30;;;;;;;;;;5032750;28;20024;-79
2022/09/23 04:03:04;;;;;;;27.90;14.03;;;;;;;;;;5040976;28;20040;-80
2022/09/23 04:05:30;;;;;;;26.93;13.80;;;;;;;;;;5042638;28;20029;-79
2022/09/23 04:07:55;;;;;;;21.73;12.43;;;;;;;;;;5039160;28;20026;-79
2022/09/23 04:10:21;;;;;;;29.43;13.63;;;;;;;;;;5042498;28;20044;-78
2022/09/23 04:12:47;;;;;;;24.40;13.50;;;;;;;;;;5038831;28;20037;-79
2022/09/23 04:15:12;;;;;;;29.57;15.07;;;;;;;;;;5041604;28;20021;-79
2022/09/23 04:17:38;;;;;;;22.90;13.47;;;;;;;;;;5038425;28;20025;-79
2022/09/23 04:20:03;;;;;;;26.70;12.97;;;;;;;;;;5041612;28;20025;-80
2022/09/23 04:22:29;;;;;;;28.80;13.90;;;;;;;;;;5038145;28;20440;-79
2022/09/23 04:24:55;;;;;;;27.93;14.17;;;;;;;;;;5042921;28;20029;-78
2022/09/23 04:27:21;;;;;;;28.37;14.00;;;;;;;;;;5027782;28;20039;-77
2022/09/23 04:29:46;;;;;;;31.80;14.63;;;;;;;;;;5030952;28;20060;-77
2022/09/23 04:32:11;;;;;;;28.33;14.37;;;;;;;;;;5043554;28;20031;-78
2022/09/23 04:34:37;;;;;;;26.13;13.53;;;;;;;;;;5036021;28;20028;-80
2022/09/23 04:37:03;;;;;;;23.20;12.70;;;;;;;;;;5043069;28;20025;-77
2022/09/23 04:39:28;;;;;;;30.87;15.50;;;;;;;;;;5036605;28;20084;-78
2022/09/23 04:41:53;;;;;;;25.13;13.73;;;;;;;;;;5043504;28;20032;-78
2022/09/23 04:44:20;;;;;;;22.00;13.30;;;;;;;;;;5035854;28;20048;-79
2022/09/23 04:46:46;;;;;;;23.97;12.37;;;;;;;;;;5043878;28;20061;-78
2022/09/23 04:49:13;;;;;;;24.77;13.77;;;;;;;;;;5035899;28;20029;-78
2022/09/23 04:51:42;;;;;;;23.03;11.83;;;;;;;;;;5037543;28;20041;-79
2022/09/23 04:54:10;;;;;;;23.40;9.90;;;;;;;;;;5030577;28;20176;-81
2022/09/23 04:56:38;;;;;;;21.90;11.67;;;;;;;;;;5042944;28;20060;-79
2022/09/23 04:59:04;;;;;;;21.93;12.07;;;;;;;;;;5036897;28;20044;-79
2022/09/23 05:01:31;;;;;;;21.13;11.07;;;;;;;;;;5041851;28;20040;-78
2022/09/23 05:04:01;;;;;;;20.17;11.93;;;;;;;;;;5038785;28;20505;-77
2022/09/23 05:06:28;;;;;;;22.77;11.90;;;;;;;;;;5036511;28;20079;-78
2022/09/23 05:08:55;;;;;;;22.67;10.47;;;;;;;;;;5035061;28;20037;-78
2022/09/23 05:11:23;;;;;;;18.43;10.13;;;;;;;;;;5035532;28;20474;-78
2022/09/23 05:13:51;;;;;;;16.80;10.47;;;;;;;;;;5025540;28;20060;-78
2022/09/23 05:16:18;;;;;;;18.47;10.37;;;;;;;;;;5038282;28;20398;-75
2022/09/23 05:18:45;;;;;;;26.20;11.33;;;;;;;;;;5037665;28;20091;-79
2022/09/23 05:21:15;;;;;;;32.93;11.37;;;;;;;;;;5031912;28;20028;-79
2022/09/23 05:23:59;;;;;;;24.53;11.67;;;;;;;;;;5032769;28;20064;-78
2022/09/23 05:26:28;;;;;;;23.17;10.73;;;;;;;;;;5034955;28;20072;-78
2022/09/23 05:28:54;;;;;;;21.97;12.23;;;;;;;;;;5019609;28;20445;-77
2022/09/23 05:31:24;;;;;;;20.03;10.13;;;;;;;;;;5040426;28;20048;-79
2022/09/23 05:33:53;;;;;;;23.90;12.67;;;;;;;;;;5034910;28;20037;-84
2022/09/23 05:36:20;;;;;;;32.10;13.90;;;;;;;;;;5023245;28;20140;-78
2022/09/23 05:38:48;;;;;;;26.53;12.27;;;;;;;;;;5030432;28;20112;-77
2022/09/23 05:41:13;;;;;;;23.17;12.93;;;;;;;;;;5030563;28;20033;-79
2022/09/23 05:43:40;;;;;;;22.23;11.30;;;;;;;;;;5045792;28;20040;-77
2022/09/23 05:46:17;;;;;;;23.97;11.27;;;;;;;;;;5025419;28;20183;-76
2022/09/23 05:48:46;;;;;;;25.07;10.77;;;;;;;;;;5043454;28;20576;-79
2022/09/23 05:51:15;;;;;;;22.67;11.97;;;;;;;;;;5035548;28;20025;-78
2022/09/23 05:53:46;;;;;;;20.23;10.57;;;;;;;;;;5038596;28;20030;-79
2022/09/23 05:56:14;;;;;;;21.73;10.35;;;;;;;;;;5023513;28;20475;-77
2022/09/23 05:58:39;;;;;;;18.57;10.10;;;;;;;;;;5037229;28;20041;-78
2022/09/23 06:01:12;;;;;;;22.63;10.17;;;;;;;;;;5042755;28;20029;-78
2022/09/23 06:03:39;;;;;;;20.30;10.90;;;;;;;;;;5036538;28;20032;-78
2022/09/23 06:06:06;;;;;;;19.93;10.80;;;;;;;;;;5015244;28;20060;-75
2022/09/23 06:08:33;;;;;;;19.10;10.27;;;;;;;;;;5033618;28;20033;-81
2022/09/23 06:11:04;;;;;;;22.47;10.17;;;;;;;;;;5027244;28;20033;-78
2022/09/23 06:13:30;;;;;;;17.88;9.48;;;;;;;;;;5033258;28;20464;-77
2022/09/23 06:15:57;;;;;;;18.33;9.67;;;;;;;;;;5030302;28;20032;-75
2022/09/23 06:18:22;;;;;;;21.23;11.00;;;;;;;;;;5029034;28;20456;-78
2022/09/23 06:20:48;;;;;;;19.43;8.87;;;;;;;;;;5032775;28;20029;-78
2022/09/23 06:23:13;;;;;;;24.23;11.10;;;;;;;;;;5014063;28;20052;-76
2022/09/23 06:25:39;;;;;;;21.73;10.33;;;;;;;;;;5030600;28;20044;-77
2022/09/23 06:28:11;;;;;;;16.60;10.10;;;;;;;;;;5035987;28;20036;-77
2022/09/23 06:30:41;;;;;;;21.90;10.57;;;;;;;;;;5040755;28;20029;-79
2022/09/23 06:33:06;;;;;;;21.60;9.73;;;;;;;;;;5040613;28;20065;-76
2022/09/23 06:35:33;;;;;;;17.17;9.07;;;;;;;;;;5024819;28;20059;-75
2022/09/23 06:38:02;;;;;;;20.33;10.77;;;;;;;;;;5037391;28;20153;-77
2022/09/23 06:40:28;;;;;;;21.73;10.27;;;;;;;;;;5032634;28;20033;-76
2022/09/23 06:42:58;;;;;;;17.53;10.13;;;;;;;;;;5031479;28;20524;-74
2022/09/23 06:45:26;;;;;;;18.83;10.07;;;;;;;;;;5033412;28;20030;-76
2022/09/23 06:47:56;;;;;;;15.60;9.33;;;;;;;;;;5032744;28;20025;-78
2022/09/23 06:50:26;;;;;;;17.00;9.73;;;;;;;;;;5034457;28;20836;-75
2022/09/23 06:52:57;;;;;;;22.50;10.47;;;;;;;;;;5015850;28;20025;-77
2022/09/23 06:55:26;;;;;;;25.70;11.38;;;;;;;;;;5014210;28;20036;-77
2022/09/23 06:57:58;;;;;;;18.30;10.90;;;;;;;;;;5021980;28;20045;-78
2022/09/23 07:00:25;;;;;;;18.00;10.00;;;;;;;;;;5035204;28;20033;-79
2022/09/23 07:02:53;;;;;;;48.27;13.70;;;;;;;;;;5034729;28;20469;-75
2022/09/23 07:05:21;;;;;;;15.73;9.23;;;;;;;;;;5032318;28;20037;-78
2022/09/23 07:07:46;;;;;;;17.97;9.93;;;;;;;;;;5017193;28;20072;-74
2022/09/23 07:10:13;;;;;;;18.63;9.83;;;;;;;;;;5035166;28;20053;-75
2022/09/23 07:12:38;;;;;;;15.00;9.80;;;;;;;;;;5035168;28;20033;-75
2022/09/23 07:15:05;;;;;;;19.53;10.23;;;;;;;;;;5034557;28;20106;-78
2022/09/23 07:17:30;;;;;;;18.37;11.43;;;;;;;;;;5028287;28;20758;-76
2022/09/23 07:19:57;;;;;;;26.10;11.70;;;;;;;;;;5034219;28;20033;-75
2022/09/23 07:22:25;;;;;;;23.17;11.43;;;;;;;;;;5033451;28;20056;-75
2022/09/23 07:24:54;;;;;;;17.97;10.73;;;;;;;;;;5030900;28;20059;-75
2022/09/23 07:27:22;;;;;;;18.03;10.90;;;;;;;;;;5021235;28;20040;-76
2022/09/23 07:29:49;;;;;;;21.03;10.20;;;;;;;;;;5032839;28;21006;-77
2022/09/23 07:32:15;;;;;;;17.03;10.33;;;;;;;;;;5035711;28;20416;-75
2022/09/23 07:34:43;;;;;;;18.80;9.83;;;;;;;;;;5032637;28;20021;-76
2022/09/23 07:37:09;;;;;;;16.10;9.70;;;;;;;;;;5026216;28;20182;-76
2022/09/23 07:39:35;;;;;;;17.40;10.37;;;;;;;;;;5027961;28;20025;-73
2022/09/23 07:42:04;;;;;;;20.23;11.05;;;;;;;;;;5018614;28;20147;-76
2022/09/23 07:44:30;;;;;;;20.35;12.65;;;;;;;;;;5018829;28;20030;-77
2022/09/23 07:46:57;;;;;;;20.20;11.60;;;;;;;;;;5020747;28;20100;-78
2022/09/23 07:49:23;;;;;;;19.13;11.35;;;;;;;;;;5028755;28;20040;-77
2022/09/23 07:51:49;;;;;;;24.15;12.18;;;;;;;;;;5029520;28;20126;-77
2022/09/23 07:54:15;;;;;;;21.60;11.98;;;;;;;;;;5012734;28;20131;-78
2022/09/23 07:56:42;;;;;;;26.30;12.27;;;;;;;;;;5023261;28;20793;-80
2022/09/23 07:59:14;;;;;;;21.45;12.15;;;;;;;;;;5016654;28;20029;-77
2022/09/23 08:01:51;;;;;;;;;;;;;;;;;;5013367;28;20076;-75
2022/09/23 08:04:21;;;;;;;21.27;11.07;;;;;;;;;;5029862;28;20289;-77
2022/09/23 08:06:54;;;;;;;23.00;11.98;;;;;;;;;;5009923;28;20033;-77
2022/09/23 08:09:22;;;;;;;21.33;12.93;;;;;;;;;;5012635;28;20163;-74
2022/09/23 08:11:49;;;;;;;22.10;11.88;;;;;;;;;;5027568;28;20029;-77
2022/09/23 08:14:21;;;;;;;19.98;11.55;;;;;;;;;;5014885;28;20594;-81
2022/09/23 08:16:47;;;;;;;22.00;12.63;;;;;;;;;;5034003;28;20029;-79
2022/09/23 08:19:13;;;;;;;20.45;12.55;;;;;;;;;;5034008;28;20030;-79
2022/09/23 08:21:40;;;;;;;19.33;11.43;;;;;;;;;;5008449;28;20056;-78
2022/09/23 08:24:10;;;;;;;24.30;12.68;;;;;;;;;;5000528;28;20041;-76
2022/09/23 08:26:36;;;;;;;20.95;12.52;;;;;;;;;;5008154;28;20037;-77
2022/09/23 08:29:03;;;;;;;19.60;11.60;;;;;;;;;;5028122;28;20030;-79
2022/09/23 08:31:28;;;;;;;19.02;12.27;;;;;;;;;;5027526;28;20026;-76
2022/09/23 08:33:57;;;;;;;23.45;12.30;;;;;;;;;;5029243;28;20028;-77
2022/09/23 08:36:24;;;;;;;18.95;12.73;;;;;;;;;;5009058;28;20030;-79
2022/09/23 08:38:50;;;;;;;18.25;11.88;;;;;;;;;;5035179;28;20503;-77
2022/09/23 08:41:23;;;;;;;18.92;12.27;;;;;;;;;;5024640;28;20968;-78
2022/09/23 08:43:56;;;;;;;21.77;12.13;;;;;;;;;;5033044;28;20500;-80
2022/09/23 08:46:27;;;;;;;37.85;18.83;;;;;;;;;;5029346;28;20497;-77
2022/09/23 08:48:54;;;;;;;21.98;11.85;;;;;;;;;;5033380;28;20032;-77
2022/09/23 08:51:34;;;;;;;16.65;11.40;;;;;;;;;;5018577;28;20041;-78
2022/09/23 08:54:00;;;;;;;15.85;11.80;;;;;;;;;;5033796;28;20044;-77
2022/09/23 08:56:29;;;;;;;21.92;13.55;;;;;;;;;;5033982;28;20039;-77
2022/09/23 08:59:16;;;;;;;20.88;12.98;;;;;;;;;;5033227;28;20154;-76
2022/09/23 09:01:55;;;;;;;18.98;12.25;;;;;;;;;;5043533;28;20038;-77
2022/09/23 09:04:30;;;;;;;23.50;12.20;;;;;;;;;;5033211;28;20037;-79
2022/09/23 09:07:12;;;;;;;21.55;12.55;;;;;;;;;;5030195;28;20060;-77
2022/09/23 09:09:56;;;;;;;26.33;12.13;;;;;;;;;;5029002;28;20069;-76
2022/09/23 09:12:44;;;;;;;21.70;12.57;;;;;;;;;;5040333;28;20060;-78
2022/09/23 09:15:18;;;;;;;17.70;11.10;;;;;;;;;;5016460;28;20430;-77
2022/09/23 09:18:09;;;;;;;17.92;11.02;;;;;;;;;;5031302;28;20037;-79
2022/09/23 09:20:58;;;;;;;19.85;12.05;;;;;;;;;;5033159;28;20054;-79
2022/09/23 09:23:52;;;;;;;19.75;11.13;;;;;;;;;;5024623;28;20067;-76
2022/09/23 09:26:27;;;;;;;16.95;11.35;;;;;;;;;;5022047;28;20037;-75
2022/09/23 09:29:35;;;;;;;18.38;10.57;;;;;;;;;;5034512;28;20035;-81
2022/09/23 09:32:15;;;;;;;17.73;11.23;;;;;;;;;;4999270;28;20167;-79
2022/09/23 09:34:53;;;;;;;18.75;10.52;;;;;;;;;;5013864;28;20051;-79
2022/09/23 09:37:43;;;;;;;16.15;10.80;;;;;;;;;;5025849;28;20048;-78
2022/09/23 09:40:13;;;;;;;20.15;11.68;;;;;;;;;;5033990;28;20044;-77
2022/09/23 09:42:41;;;;;;;17.42;10.73;;;;;;;;;;5012119;28;20040;-79
2022/09/23 09:45:28;;;;;;;18.80;10.52;;;;;;;;;;5037712;28;20036;-79
2022/09/23 09:48:09;;;;;;;18.80;11.18;;;;;;;;;;5032879;28;20036;-78
2022/09/23 09:50:46;;;;;;;17.35;11.60;;;;;;;;;;5030751;28;20072;-80
2022/09/23 09:53:26;;;;;;;16.35;10.82;;;;;;;;;;5030377;28;20063;-77
2022/09/23 09:56:00;;;;;;;16.30;10.57;;;;;;;;;;5030706;28;20485;-77
2022/09/23 09:58:52;;;;;;;15.65;10.80;;;;;;;;;;5032381;28;20029;-76
2022/09/23 10:01:31;;;;;;;;;;;;;;;;;;5036977;28;20038;-79
2022/09/23 10:04:00;;;;;;;16.55;9.68;;;;;;;;;;5029161;28;19916;-78
2022/09/23 10:06:33;;;;;;;14.80;9.80;;;;;;;;;;5025869;28;20037;-81
2022/09/23 10:09:12;;;;;;;18.73;10.48;;;;;;;;;;5038314;28;20036;-77
2022/09/23 10:11:39;;;;;;;13.00;9.35;;;;;;;;;;5023753;28;20034;-80
2022/09/23 10:14:17;;;;;;;14.68;9.00;;;;;;;;;;5039583;28;20139;-77
2022/09/23 10:16:47;;;;;;;16.63;9.20;;;;;;;;;;5034131;28;20033;-78
2022/09/23 10:19:36;;;;;;;13.85;9.77;;;;;;;;;;5029318;28;20034;-77
2022/09/23 10:22:07;;;;;;;13.63;8.93;;;;;;;;;;5030286;28;20065;-77
2022/09/23 10:24:37;;;;;;;11.85;8.68;;;;;;;;;;5030481;28;20032;-77
2022/09/23 10:27:08;;;;;;;12.27;8.77;;;;;;;;;;5028694;28;20120;-79
2022/09/23 10:29:49;;;;;;;13.27;8.27;;;;;;;;;;5042765;28;20044;-78
2022/09/23 10:32:26;;;;;;;26.08;12.73;;;;;;;;;;5037321;28;20087;-78
2022/09/23 10:35:13;;;;;;;15.35;9.32;;;;;;;;;;5040519;28;20033;-78
2022/09/23 10:37:41;;;;;;;14.55;9.40;;;;;;;;;;5056799;28;20033;-81
2022/09/23 10:47:10;;;;;;;13.55;9.65;;;;;;;;;;5034007;28;20524;-78
2022/09/23 10:50:02;;;;;;;14.40;9.10;;;;;;;;;;5017074;28;20033;-78
2022/09/23 10:52:56;;;;;;;16.50;9.25;;;;;;;;;;5039062;28;20126;-79
2022/09/23 10:55:37;;;;;;;11.05;8.75;;;;;;;;;;5033491;28;20033;-79
2022/09/23 10:58:21;;;;;;;10.73;7.68;;;;;;;;;;5025362;28;20037;-77
2022/09/23 11:01:14;;;;;;;13.23;7.97;;;;;;;;;;5035146;28;20017;-77
2022/09/23 11:04:14;;;;;;;32.33;11.90;;;;;;;;;;5040944;28;20034;-78
2022/09/23 11:06:42;;;;;;;30.25;10.80;;;;;;;;;;5029668;28;20033;-77
2022/09/23 11:09:40;;;;;;;12.93;9.05;;;;;;;;;;5033536;28;20428;-78
2022/09/23 11:12:11;;;;;;;21.02;10.15;;;;;;;;;;5036929;28;20036;-80
2022/09/23 11:14:50;;;;;;;12.38;9.35;;;;;;;;;;5034208;28;20038;-80
2022/09/23 11:17:35;;;;;;;13.35;8.90;;;;;;;;;;5035267;28;20032;-77
2022/09/23 11:20:33;;;;;;;11.18;8.18;;;;;;;;;;5039562;28;20044;-78
2022/09/23 11:23:19;;;;;;;10.55;8.02;;;;;;;;;;4988096;28;20040;-77
2022/09/23 11:26:12;;;;;;;12.23;7.82;;;;;;;;;;5035090;28;20034;-77
2022/09/23 11:29:19;;;;;;;14.52;8.98;;;;;;;;;;5039096;28;20488;-76
2022/09/23 11:32:27;;;;;;;12.63;8.63;;;;;;;;;;5021154;28;20124;-80
2022/09/23 11:34:56;;;;;;;18.38;11.43;;;;;;;;;;5028928;28;20052;-78
2022/09/23 11:37:27;;;;;;;13.50;8.57;;;;;;;;;;5034279;28;20048;-77
2022/09/23 11:40:31;;;;;;;18.77;11.97;;;;;;;;;;5040303;28;20032;-78
2022/09/23 11:43:13;;;;;;;12.70;8.02;;;;;;;;;;5047648;28;20400;-79
2022/09/23 11:46:17;;;;;;;12.35;7.60;;;;;;;;;;5017844;28;20126;-79
2022/09/23 11:48:55;;;;;;;11.77;9.07;;;;;;;;;;5033423;28;20055;-76
2022/09/23 11:51:28;;;;;;;12.38;9.38;;;;;;;;;;5044676;28;20037;-78
2022/09/23 11:54:00;;;;;;;11.65;6.65;;;;;;;;;;5020686;28;20076;-76
2022/09/23 11:56:45;;;;;;;15.45;9.95;;;;;;;;;;5035909;28;20028;-75
2022/09/23 11:59:23;;;;;;;8.90;7.45;;;;;;;;;;5036488;28;20445;-77
2022/09/23 12:02:32;;;;;;;9.23;7.10;;;;;;;;;;5043997;28;20045;-78
2022/09/23 12:05:08;;;;;;;9.90;7.07;;;;;;;;;;5040953;28;20123;-79
2022/09/23 12:07:52;;;;;;;12.68;7.53;;;;;;;;;;5044884;28;20033;-80
2022/09/23 12:10:21;;;;;;;8.02;6.45;;;;;;;;;;5048705;28;20080;-75
2022/09/23 12:12:52;;;;;;;8.77;6.30;;;;;;;;;;5028021;28;20422;-78
2022/09/23 12:15:49;;;;;;;9.30;6.50;;;;;;;;;;5047726;28;20124;-79
2022/09/23 12:18:47;;;;;;;8.43;6.55;;;;;;;;;;5038135;28;20111;-82
2022/09/23 12:21:45;;;;;;;10.05;6.85;;;;;;;;;;5005704;28;20033;-77
2022/09/23 12:24:35;;;;;;;11.77;7.25;;;;;;;;;;5047029;28;20024;-79
2022/09/23 12:27:05;;;;;;;10.30;7.47;;;;;;;;;;4987350;28;20537;-72
2022/09/23 12:29:34;;;;;;;12.00;6.03;;;;;;;;;;5047182;28;20409;-76
2022/09/23 12:32:00;;;;;;;13.52;7.13;;;;;;;;;;5043366;28;20047;-78
2022/09/23 12:34:50;;;;;;;10.27;6.10;;;;;;;;;;5027005;28;20493;-76
2022/09/23 12:37:37;;;;;;;11.18;7.32;;;;;;;;;;5020055;28;20387;-77
2022/09/23 12:40:22;;;;;;;9.30;6.05;;;;;;;;;;5041777;28;20055;-80
2022/09/23 12:42:51;;;;;;;7.10;5.25;;;;;;;;;;5047214;28;20080;-75
2022/09/23 12:45:31;;;;;;;7.03;5.78;;;;;;;;;;5023853;28;20029;-77
2022/09/23 12:48:03;;;;;;;11.30;5.22;;;;;;;;;;5049562;28;20047;-79
2022/09/23 12:50:49;;;;;;;;;;;;;;;;;;5036783;28;20424;-75
2022/09/23 12:53:33;;;;;;;7.32;5.32;;;;;;;;;;5041708;28;19936;-76
2022/09/23 12:56:19;;;;;;;5.25;3.47;;;;;;;;;;5035325;28;20437;-76
2022/09/23 12:58:50;;;;;;;1.20;0.98;;;;;;;;;;5051621;28;20107;-76
2022/09/23 13:01:17;;;;;;;;;;;;;;;;;;5039227;28;20037;-77
2022/09/23 13:06:39;;;;;;;6.75;1.30;;;;;;;;;;5038734;28;20098;-72
2022/09/23 13:09:36;;;;;;;2.97;1.30;;;;;;;;;;5022159;28;20099;-79
2022/09/23 13:12:06;;;;;;;1.23;1.15;;;;;;;;;;5031453;28;20044;-77
2022/09/23 13:14:33;;;;;;;2.63;1.70;;;;;;;;;;5035464;28;20382;-77
2022/09/23 13:16:58;;;;;;;3.85;2.33;;;;;;;;;;5039915;28;20078;-78
2022/09/23 13:19:27;;;;;;;2.88;1.70;;;;;;;;;;5035519;28;20112;-78
2022/09/23 13:21:52;;;;;;;2.05;1.50;;;;;;;;;;5037833;28;20029;-78
2022/09/23 13:24:21;;;;;;;3.67;2.35;;;;;;;;;;5035639;28;20584;-78
2022/09/23 13:26:54;;;;;;;2.60;2.05;;;;;;;;;;5050341;28;20044;-79
2022/09/23 13:29:27;;;;;;;8.98;3.13;;;;;;;;;;5049931;28;20029;-79
2022/09/23 13:31:56;;;;;;;7.20;4.00;;;;;;;;;;5043184;28;20361;-78
2022/09/23 13:34:25;;;;;;;5.25;2.85;;;;;;;;;;5049594;28;20118;-78
2022/09/23 13:36:50;;;;;;;6.50;3.20;;;;;;;;;;5038648;28;20032;-77
2022/09/23 13:39:23;;;;;;;2.63;1.60;;;;;;;;;;5042146;28;20029;-77
2022/09/23 13:41:52;;;;;;;3.00;1.90;;;;;;;;;;5030399;28;20032;-79
2022/09/23 13:44:19;;;;;;;2.47;1.30;;;;;;;;;;5042637;28;20033;-78
2022/09/23 13:46:54;;;;;;;1.63;1.20;;;;;;;;;;5037635;28;20028;-78
2022/09/23 13:49:42;;;;;;;4.10;2.30;;;;;;;;;;5041897;28;20044;-79
2022/09/23 13:52:25;;;;;;;7.32;2.00;;;;;;;;;;5034789;28;20048;-77
2022/09/23 13:54:51;;;;;;;5.28;2.20;;;;;;;;;;5040979;28;20025;-78
2022/09/23 13:57:32;;;;;;;2.78;1.63;;;;;;;;;;5036394;28;20026;-78
2022/09/23 14:00:23;;;;;;;3.78;2.10;;;;;;;;;;5043518;28;20033;-77
2022/09/23 14:02:49;;;;;;;2.85;1.50;;;;;;;;;;5025068;28;20039;-77
2022/09/23 14:05:34;;;;;;;2.60;1.90;;;;;;;;;;5039668;28;20382;-77
2022/09/23 14:08:01;;;;;;;5.72;2.83;;;;;;;;;;5036189;28;20029;-79
2022/09/23 14:10:27;;;;;;;8.13;2.65;;;;;;;;;;5049895;28;20103;-78
2022/09/23 14:12:55;;;;;;;3.90;2.17;;;;;;;;;;5031848;28;20166;-78
2022/09/23 14:15:21;;;;;;;4.38;2.47;;;;;;;;;;5042384;28;20051;-79
2022/09/23 14:17:50;;;;;;;4.63;1.60;;;;;;;;;;5047914;28;20029;-78
2022/09/23 14:20:16;;;;;;;5.18;1.92;;;;;;;;;;5034980;28;20041;-77
2022/09/23 14:22:43;;;;;;;2.70;1.85;;;;;;;;;;5035751;28;20040;-77
2022/09/23 14:25:17;;;;;;;3.80;2.15;;;;;;;;;;5041526;28;20481;-78
2022/09/23 14:27:45;;;;;;;3.35;2.50;;;;;;;;;;5020342;28;20120;-78
2022/09/23 14:30:16;;;;;;;3.55;2.70;;;;;;;;;;5042413;28;20465;-78
2022/09/23 14:32:42;;;;;;;4.47;2.15;;;;;;;;;;5036470;28;20026;-78
2022/09/23 14:35:26;;;;;;;2.97;1.90;;;;;;;;;;5041857;28;20381;-78
2022/09/23 14:41:16;;;;;;;3.20;1.48;;;;;;;;;;5032867;28;20446;-77
2022/09/23 14:43:49;;;;;;;3.95;2.30;;;;;;;;;;5046235;28;20060;-77
2022/09/23 14:46:18;;;;;;;2.42;1.80;;;;;;;;;;5038553;28;20025;-79
2022/09/23 14:48:52;;;;;;;3.38;2.85;;;;;;;;;;5056550;28;20397;-78
2022/09/23 14:51:17;;;;;;;2.28;1.83;;;;;;;;;;5042767;28;20159;-77
2022/09/23 14:53:45;;;;;;;2.30;1.50;;;;;;;;;;5041181;28;20445;-78
2022/09/23 14:56:16;;;;;;;2.67;1.95;;;;;;;;;;5034409;28;20028;-77
2022/09/23 14:58:59;;;;;;;3.95;2.08;;;;;;;;;;5037824;28;20034;-79
2022/09/23 15:01:31;;;;;;;5.78;2.00;;;;;;;;;;5034377;28;20067;-77
2022/09/23 15:04:08;;;;;;;3.78;1.85;;;;;;;;;;5050195;28;20095;-78
2022/09/23 15:06:36;;;;;;;10.30;2.60;;;;;;;;;;5044664;28;20029;-78
2022/09/23 15:09:08;;;;;;;3.35;1.63;;;;;;;;;;5044963;28;20036;-78
2022/09/23 15:11:34;;;;;;;17.50;2.92;;;;;;;;;;5032125;28;20094;-78
2022/09/23 15:14:02;;;;;;;6.10;1.75;;;;;;;;;;5045840;28;20028;-77
2022/09/23 15:16:29;;;;;;;3.28;2.13;;;;;;;;;;5044264;28;20021;-78
2022/09/23 15:18:57;;;;;;;4.03;2.00;;;;;;;;;;5021773;28;20029;-78
2022/09/23 15:21:24;;;;;;;4.43;2.00;;;;;;;;;;5027646;28;20028;-78